sensor_id;sensor_type;location;lat;lon;timestamp;P1;durP1;ratioP1;P2;durP2;ratioP2
77040;SDS011;65974;42.664;23.264;2023-02-11T00:00:33;15.77;;;7.43;;
77040;SDS011;65974;42.664;23.264;2023-02-11T00:02:59;19.58;;;8.85;;
77040;SDS011;65974;42.664;23.264;2023-02-11T00:05:25;21.75;;;10.18;;
77040;SDS011;65974;42.664;23.264;2023-02-11T00:07:50;19.65;;;8.43;;
77040;SDS011;65974;42.664;23.264;2023-02-11T00:10:15;13.27;;;8.32;;
77040;SDS011;65974;42.664;23.264;2023-02-11T00:12:41;13.73;;;6.13;;
77040;SDS011;65974;42.664;23.264;2023-02-11T00:15:07;12.93;;;6.63;;
77040;SDS011;65974;42.664;23.264;2023-02-11T00:17:33;14.23;;;7.85;;
77040;SDS011;65974;42.664;23.264;2023-02-11T00:19:59;16.98;;;7.65;;
77040;SDS011;65974;42.664;23.264;2023-02-11T00:22:24;10.98;;;8.48;;
77040;SDS011;65974;42.664;23.264;2023-02-11T00:25:08;14.38;;;9.55;;
77040;SDS011;65974;42.664;23.264;2023-02-11T00:27:33;11.88;;;6.18;;
77040;SDS011;65974;42.664;23.264;2023-02-11T00:30:00;14.07;;;7.05;;
77040;SDS011;65974;42.664;23.264;2023-02-11T00:32:26;14.05;;;7.50;;
77040;SDS011;65974;42.664;23.264;2023-02-11T00:34:52;12.23;;;7.35;;
77040;SDS011;65974;42.664;23.264;2023-02-11T00:37:19;14.05;;;8.20;;
77040;SDS011;65974;42.664;23.264;2023-02-11T00:39:44;14.45;;;7.38;;
77040;SDS011;65974;42.664;23.264;2023-02-11T00:42:12;12.05;;;6.85;;
77040;SDS011;65974;42.664;23.264;2023-02-11T00:44:38;11.82;;;7.45;;
77040;SDS011;65974;42.664;23.264;2023-02-11T00:47:04;18.88;;;7.38;;
77040;SDS011;65974;42.664;23.264;2023-02-11T00:49:29;13.00;;;7.88;;
77040;SDS011;65974;42.664;23.264;2023-02-11T00:51:55;12.02;;;9.30;;
77040;SDS011;65974;42.664;23.264;2023-02-11T00:54:20;15.38;;;7.38;;
77040;SDS011;65974;42.664;23.264;2023-02-11T00:56:46;8.18;;;5.30;;
77040;SDS011;65974;42.664;23.264;2023-02-11T00:59:11;7.03;;;5.22;;
77040;SDS011;65974;42.664;23.264;2023-02-11T01:01:36;15.70;;;6.90;;
77040;SDS011;65974;42.664;23.264;2023-02-11T01:04:02;14.38;;;7.03;;
77040;SDS011;65974;42.664;23.264;2023-02-11T01:06:27;13.45;;;8.82;;
77040;SDS011;65974;42.664;23.264;2023-02-11T01:08:53;19.40;;;7.75;;
77040;SDS011;65974;42.664;23.264;2023-02-11T01:11:18;18.88;;;8.07;;
77040;SDS011;65974;42.664;23.264;2023-02-11T01:13:45;14.52;;;6.13;;
77040;SDS011;65974;42.664;23.264;2023-02-11T01:16:12;12.45;;;5.13;;
77040;SDS011;65974;42.664;23.264;2023-02-11T01:18:38;16.73;;;7.35;;
77040;SDS011;65974;42.664;23.264;2023-02-11T01:21:04;15.45;;;8.05;;
77040;SDS011;65974;42.664;23.264;2023-02-11T01:23:30;18.48;;;7.28;;
77040;SDS011;65974;42.664;23.264;2023-02-11T01:25:55;10.63;;;6.43;;
77040;SDS011;65974;42.664;23.264;2023-02-11T01:28:22;9.70;;;6.97;;
77040;SDS011;65974;42.664;23.264;2023-02-11T01:30:49;17.70;;;6.88;;
77040;SDS011;65974;42.664;23.264;2023-02-11T01:33:15;15.38;;;8.20;;
77040;SDS011;65974;42.664;23.264;2023-02-11T01:35:40;15.15;;;6.97;;
77040;SDS011;65974;42.664;23.264;2023-02-11T01:41:12;13.65;;;8.25;;
77040;SDS011;65974;42.664;23.264;2023-02-11T01:43:42;11.93;;;7.35;;
77040;SDS011;65974;42.664;23.264;2023-02-11T01:46:16;9.93;;;5.88;;
77040;SDS011;65974;42.664;23.264;2023-02-11T01:49:10;15.52;;;5.85;;
77040;SDS011;65974;42.664;23.264;2023-02-11T01:51:41;9.88;;;6.10;;
77040;SDS011;65974;42.664;23.264;2023-02-11T01:54:12;11.55;;;5.20;;
77040;SDS011;65974;42.664;23.264;2023-02-11T01:56:59;17.40;;;7.13;;
77040;SDS011;65974;42.664;23.264;2023-02-11T02:02:33;20.63;;;6.75;;
77040;SDS011;65974;42.664;23.264;2023-02-11T02:05:04;15.18;;;8.52;;
77040;SDS011;65974;42.664;23.264;2023-02-11T02:10:53;12.30;;;6.85;;
77040;SDS011;65974;42.664;23.264;2023-02-11T02:13:23;9.23;;;5.78;;
77040;SDS011;65974;42.664;23.264;2023-02-11T02:34:43;10.15;;;3.35;;
77040;SDS011;65974;42.664;23.264;2023-02-11T02:37:23;8.93;;;5.68;;
77040;SDS011;65974;42.664;23.264;2023-02-11T02:39:56;11.88;;;5.47;;
77040;SDS011;65974;42.664;23.264;2023-02-11T02:42:27;14.85;;;6.90;;
77040;SDS011;65974;42.664;23.264;2023-02-11T02:44:52;12.88;;;6.90;;
77040;SDS011;65974;42.664;23.264;2023-02-11T02:47:20;10.50;;;6.10;;
77040;SDS011;65974;42.664;23.264;2023-02-11T02:49:45;10.98;;;6.47;;
77040;SDS011;65974;42.664;23.264;2023-02-11T02:57:39;18.73;;;6.32;;
77040;SDS011;65974;42.664;23.264;2023-02-11T03:00:24;9.32;;;4.97;;
77040;SDS011;65974;42.664;23.264;2023-02-11T03:08:08;10.55;;;4.25;;
77040;SDS011;65974;42.664;23.264;2023-02-11T03:10:44;8.68;;;6.50;;
77040;SDS011;65974;42.664;23.264;2023-02-11T03:13:14;8.98;;;4.75;;
77040;SDS011;65974;42.664;23.264;2023-02-11T03:15:43;8.40;;;5.53;;
77040;SDS011;65974;42.664;23.264;2023-02-11T03:18:15;13.73;;;7.75;;
77040;SDS011;65974;42.664;23.264;2023-02-11T03:20:43;12.40;;;5.45;;
77040;SDS011;65974;42.664;23.264;2023-02-11T03:23:19;16.08;;;8.50;;
77040;SDS011;65974;42.664;23.264;2023-02-11T03:25:55;7.10;;;4.40;;
77040;SDS011;65974;42.664;23.264;2023-02-11T03:31:33;11.52;;;6.10;;
77040;SDS011;65974;42.664;23.264;2023-02-11T03:34:26;14.23;;;6.18;;
77040;SDS011;65974;42.664;23.264;2023-02-11T03:37:01;10.32;;;5.32;;
77040;SDS011;65974;42.664;23.264;2023-02-11T03:39:35;9.88;;;4.75;;
77040;SDS011;65974;42.664;23.264;2023-02-11T03:42:05;13.75;;;6.95;;
77040;SDS011;65974;42.664;23.264;2023-02-11T03:47:01;20.15;;;7.07;;
77040;SDS011;65974;42.664;23.264;2023-02-11T03:49:29;7.30;;;5.03;;
77040;SDS011;65974;42.664;23.264;2023-02-11T03:51:57;9.15;;;4.50;;
77040;SDS011;65974;42.664;23.264;2023-02-11T03:54:28;7.63;;;4.45;;
77040;SDS011;65974;42.664;23.264;2023-02-11T03:56:55;10.25;;;5.20;;
77040;SDS011;65974;42.664;23.264;2023-02-11T03:59:23;13.27;;;6.10;;
77040;SDS011;65974;42.664;23.264;2023-02-11T04:01:49;8.90;;;4.93;;
77040;SDS011;65974;42.664;23.264;2023-02-11T04:04:15;9.88;;;6.07;;
77040;SDS011;65974;42.664;23.264;2023-02-11T04:06:41;17.40;;;6.20;;
77040;SDS011;65974;42.664;23.264;2023-02-11T04:09:07;8.52;;;5.88;;
77040;SDS011;65974;42.664;23.264;2023-02-11T04:11:33;12.02;;;5.38;;
77040;SDS011;65974;42.664;23.264;2023-02-11T04:14:00;7.68;;;5.15;;
77040;SDS011;65974;42.664;23.264;2023-02-11T04:16:25;8.70;;;5.35;;
77040;SDS011;65974;42.664;23.264;2023-02-11T04:18:51;10.50;;;5.60;;
77040;SDS011;65974;42.664;23.264;2023-02-11T04:21:16;10.93;;;6.57;;
77040;SDS011;65974;42.664;23.264;2023-02-11T04:23:42;10.25;;;4.53;;
77040;SDS011;65974;42.664;23.264;2023-02-11T04:26:08;14.43;;;6.15;;
77040;SDS011;65974;42.664;23.264;2023-02-11T04:28:33;7.28;;;6.20;;
77040;SDS011;65974;42.664;23.264;2023-02-11T04:30:58;10.40;;;4.85;;
77040;SDS011;65974;42.664;23.264;2023-02-11T04:33:24;9.48;;;6.10;;
77040;SDS011;65974;42.664;23.264;2023-02-11T04:35:50;15.13;;;8.43;;
77040;SDS011;65974;42.664;23.264;2023-02-11T04:38:15;9.13;;;6.90;;
77040;SDS011;65974;42.664;23.264;2023-02-11T04:40:41;17.88;;;7.57;;
77040;SDS011;65974;42.664;23.264;2023-02-11T04:43:06;13.32;;;5.68;;
77040;SDS011;65974;42.664;23.264;2023-02-11T04:45:32;13.35;;;5.82;;
77040;SDS011;65974;42.664;23.264;2023-02-11T04:47:58;12.18;;;6.93;;
77040;SDS011;65974;42.664;23.264;2023-02-11T04:52:52;6.68;;;4.28;;
77040;SDS011;65974;42.664;23.264;2023-02-11T04:55:17;13.48;;;5.50;;
77040;SDS011;65974;42.664;23.264;2023-02-11T04:57:43;9.95;;;5.93;;
77040;SDS011;65974;42.664;23.264;2023-02-11T05:00:08;9.43;;;5.32;;
77040;SDS011;65974;42.664;23.264;2023-02-11T05:02:34;10.27;;;6.38;;
77040;SDS011;65974;42.664;23.264;2023-02-11T05:05:00;13.00;;;7.55;;
77040;SDS011;65974;42.664;23.264;2023-02-11T05:07:25;12.73;;;6.47;;
77040;SDS011;65974;42.664;23.264;2023-02-11T05:09:51;7.10;;;4.50;;
77040;SDS011;65974;42.664;23.264;2023-02-11T05:12:16;11.52;;;7.35;;
77040;SDS011;65974;42.664;23.264;2023-02-11T05:14:42;12.35;;;8.07;;
77040;SDS011;65974;42.664;23.264;2023-02-11T05:17:07;11.05;;;6.95;;
77040;SDS011;65974;42.664;23.264;2023-02-11T05:19:33;9.65;;;5.22;;
77040;SDS011;65974;42.664;23.264;2023-02-11T05:21:58;9.13;;;6.28;;
77040;SDS011;65974;42.664;23.264;2023-02-11T05:24:24;8.60;;;5.28;;
77040;SDS011;65974;42.664;23.264;2023-02-11T05:26:49;10.02;;;5.70;;
77040;SDS011;65974;42.664;23.264;2023-02-11T05:29:14;14.98;;;8.48;;
77040;SDS011;65974;42.664;23.264;2023-02-11T05:31:40;13.10;;;7.80;;
77040;SDS011;65974;42.664;23.264;2023-02-11T05:34:05;13.43;;;6.47;;
77040;SDS011;65974;42.664;23.264;2023-02-11T05:36:31;13.50;;;6.80;;
77040;SDS011;65974;42.664;23.264;2023-02-11T05:38:56;7.65;;;4.97;;
77040;SDS011;65974;42.664;23.264;2023-02-11T05:41:21;11.52;;;6.43;;
77040;SDS011;65974;42.664;23.264;2023-02-11T05:43:47;11.90;;;7.97;;
77040;SDS011;65974;42.664;23.264;2023-02-11T05:46:16;13.35;;;8.07;;
77040;SDS011;65974;42.664;23.264;2023-02-11T05:48:42;31.77;;;16.73;;
77040;SDS011;65974;42.664;23.264;2023-02-11T05:51:07;12.15;;;7.03;;
77040;SDS011;65974;42.664;23.264;2023-02-11T05:53:33;7.80;;;6.43;;
77040;SDS011;65974;42.664;23.264;2023-02-11T05:55:58;17.77;;;8.98;;
77040;SDS011;65974;42.664;23.264;2023-02-11T05:58:24;16.02;;;7.45;;
77040;SDS011;65974;42.664;23.264;2023-02-11T06:00:50;16.88;;;7.97;;
77040;SDS011;65974;42.664;23.264;2023-02-11T06:03:15;13.55;;;6.55;;
77040;SDS011;65974;42.664;23.264;2023-02-11T06:05:41;14.63;;;8.25;;
77040;SDS011;65974;42.664;23.264;2023-02-11T06:08:07;20.92;;;7.07;;
77040;SDS011;65974;42.664;23.264;2023-02-11T06:10:32;13.07;;;6.50;;
77040;SDS011;65974;42.664;23.264;2023-02-11T06:12:58;17.50;;;8.63;;
77040;SDS011;65974;42.664;23.264;2023-02-11T06:15:23;16.27;;;9.02;;
77040;SDS011;65974;42.664;23.264;2023-02-11T06:17:49;24.27;;;9.82;;
77040;SDS011;65974;42.664;23.264;2023-02-11T06:20:14;35.88;;;13.43;;
77040;SDS011;65974;42.664;23.264;2023-02-11T06:22:39;26.60;;;11.32;;
77040;SDS011;65974;42.664;23.264;2023-02-11T06:25:05;18.42;;;10.88;;
77040;SDS011;65974;42.664;23.264;2023-02-11T06:27:30;26.85;;;10.15;;
77040;SDS011;65974;42.664;23.264;2023-02-11T06:29:56;18.00;;;10.98;;
77040;SDS011;65974;42.664;23.264;2023-02-11T06:32:21;35.45;;;13.07;;
77040;SDS011;65974;42.664;23.264;2023-02-11T06:34:47;22.15;;;10.77;;
77040;SDS011;65974;42.664;23.264;2023-02-11T06:37:12;25.50;;;10.88;;
77040;SDS011;65974;42.664;23.264;2023-02-11T06:39:38;17.88;;;9.60;;
77040;SDS011;65974;42.664;23.264;2023-02-11T06:42:03;21.48;;;9.50;;
77040;SDS011;65974;42.664;23.264;2023-02-11T06:44:28;26.90;;;12.65;;
77040;SDS011;65974;42.664;23.264;2023-02-11T06:46:54;19.13;;;11.20;;
77040;SDS011;65974;42.664;23.264;2023-02-11T06:49:19;19.38;;;9.00;;
77040;SDS011;65974;42.664;23.264;2023-02-11T06:51:46;22.63;;;13.35;;
77040;SDS011;65974;42.664;23.264;2023-02-11T06:54:11;26.23;;;14.13;;
77040;SDS011;65974;42.664;23.264;2023-02-11T06:56:38;32.15;;;14.25;;
77040;SDS011;65974;42.664;23.264;2023-02-11T06:59:05;18.40;;;8.52;;
77040;SDS011;65974;42.664;23.264;2023-02-11T07:01:31;20.92;;;10.38;;
77040;SDS011;65974;42.664;23.264;2023-02-11T07:03:58;16.77;;;8.25;;
77040;SDS011;65974;42.664;23.264;2023-02-11T07:06:24;17.92;;;9.45;;
77040;SDS011;65974;42.664;23.264;2023-02-11T07:08:51;12.30;;;7.20;;
77040;SDS011;65974;42.664;23.264;2023-02-11T07:11:19;10.88;;;6.60;;
77040;SDS011;65974;42.664;23.264;2023-02-11T07:13:50;15.82;;;8.00;;
77040;SDS011;65974;42.664;23.264;2023-02-11T07:16:17;15.05;;;8.07;;
77040;SDS011;65974;42.664;23.264;2023-02-11T07:18:43;16.50;;;8.55;;
77040;SDS011;65974;42.664;23.264;2023-02-11T07:21:10;15.48;;;8.43;;
77040;SDS011;65974;42.664;23.264;2023-02-11T07:23:37;13.48;;;6.28;;
77040;SDS011;65974;42.664;23.264;2023-02-11T07:26:05;16.80;;;9.95;;
77040;SDS011;65974;42.664;23.264;2023-02-11T07:28:32;18.17;;;8.57;;
77040;SDS011;65974;42.664;23.264;2023-02-11T07:30:59;15.75;;;8.77;;
77040;SDS011;65974;42.664;23.264;2023-02-11T07:33:29;19.83;;;8.70;;
77040;SDS011;65974;42.664;23.264;2023-02-11T07:35:54;17.95;;;8.60;;
77040;SDS011;65974;42.664;23.264;2023-02-11T07:38:24;17.77;;;7.63;;
77040;SDS011;65974;42.664;23.264;2023-02-11T07:40:49;17.45;;;8.93;;
77040;SDS011;65974;42.664;23.264;2023-02-11T07:43:15;15.63;;;7.35;;
77040;SDS011;65974;42.664;23.264;2023-02-11T07:45:40;18.65;;;6.80;;
77040;SDS011;65974;42.664;23.264;2023-02-11T07:48:05;18.60;;;9.02;;
77040;SDS011;65974;42.664;23.264;2023-02-11T07:50:31;17.45;;;9.73;;
77040;SDS011;65974;42.664;23.264;2023-02-11T07:52:56;14.07;;;7.38;;
77040;SDS011;65974;42.664;23.264;2023-02-11T07:55:22;19.00;;;8.35;;
77040;SDS011;65974;42.664;23.264;2023-02-11T07:57:47;17.15;;;9.20;;
77040;SDS011;65974;42.664;23.264;2023-02-11T08:00:13;12.88;;;6.57;;
77040;SDS011;65974;42.664;23.264;2023-02-11T08:02:38;21.05;;;9.68;;
77040;SDS011;65974;42.664;23.264;2023-02-11T08:05:04;20.23;;;9.43;;
77040;SDS011;65974;42.664;23.264;2023-02-11T08:07:29;14.93;;;7.85;;
77040;SDS011;65974;42.664;23.264;2023-02-11T08:09:55;16.90;;;9.50;;
77040;SDS011;65974;42.664;23.264;2023-02-11T08:12:20;12.23;;;5.88;;
77040;SDS011;65974;42.664;23.264;2023-02-11T08:14:46;15.32;;;9.75;;
77040;SDS011;65974;42.664;23.264;2023-02-11T08:17:11;18.45;;;8.30;;
77040;SDS011;65974;42.664;23.264;2023-02-11T08:19:37;16.88;;;7.88;;
77040;SDS011;65974;42.664;23.264;2023-02-11T08:22:03;25.08;;;10.38;;
77040;SDS011;65974;42.664;23.264;2023-02-11T08:24:28;22.80;;;8.05;;
77040;SDS011;65974;42.664;23.264;2023-02-11T08:26:53;14.23;;;6.60;;
77040;SDS011;65974;42.664;23.264;2023-02-11T08:29:19;19.65;;;8.07;;
77040;SDS011;65974;42.664;23.264;2023-02-11T08:31:45;20.52;;;9.55;;
77040;SDS011;65974;42.664;23.264;2023-02-11T08:34:12;25.80;;;12.07;;
77040;SDS011;65974;42.664;23.264;2023-02-11T08:36:39;29.63;;;14.80;;
77040;SDS011;65974;42.664;23.264;2023-02-11T08:39:06;26.35;;;12.38;;
77040;SDS011;65974;42.664;23.264;2023-02-11T08:41:36;23.90;;;9.90;;
77040;SDS011;65974;42.664;23.264;2023-02-11T08:44:01;23.63;;;10.88;;
77040;SDS011;65974;42.664;23.264;2023-02-11T08:46:27;23.35;;;11.32;;
77040;SDS011;65974;42.664;23.264;2023-02-11T08:48:53;24.40;;;10.90;;
77040;SDS011;65974;42.664;23.264;2023-02-11T08:51:20;17.83;;;8.27;;
77040;SDS011;65974;42.664;23.264;2023-02-11T08:53:48;15.50;;;8.32;;
77040;SDS011;65974;42.664;23.264;2023-02-11T08:56:14;23.05;;;10.68;;
77040;SDS011;65974;42.664;23.264;2023-02-11T08:58:41;23.20;;;11.38;;
77040;SDS011;65974;42.664;23.264;2023-02-11T09:01:08;23.92;;;10.98;;
77040;SDS011;65974;42.664;23.264;2023-02-11T09:03:35;24.10;;;11.80;;
77040;SDS011;65974;42.664;23.264;2023-02-11T09:06:02;21.70;;;11.73;;
77040;SDS011;65974;42.664;23.264;2023-02-11T09:08:29;26.05;;;13.40;;
77040;SDS011;65974;42.664;23.264;2023-02-11T09:10:55;28.23;;;12.05;;
77040;SDS011;65974;42.664;23.264;2023-02-11T09:13:21;26.42;;;11.02;;
77040;SDS011;65974;42.664;23.264;2023-02-11T09:15:46;34.15;;;12.27;;
77040;SDS011;65974;42.664;23.264;2023-02-11T09:18:13;25.48;;;11.68;;
77040;SDS011;65974;42.664;23.264;2023-02-11T09:20:40;19.92;;;9.07;;
77040;SDS011;65974;42.664;23.264;2023-02-11T09:23:05;19.67;;;9.02;;
77040;SDS011;65974;42.664;23.264;2023-02-11T09:25:31;21.85;;;10.25;;
77040;SDS011;65974;42.664;23.264;2023-02-11T09:27:56;24.50;;;12.82;;
77040;SDS011;65974;42.664;23.264;2023-02-11T09:30:21;27.58;;;10.90;;
77040;SDS011;65974;42.664;23.264;2023-02-11T09:32:47;28.38;;;11.35;;
77040;SDS011;65974;42.664;23.264;2023-02-11T09:35:12;28.10;;;12.00;;
77040;SDS011;65974;42.664;23.264;2023-02-11T09:37:38;25.48;;;11.20;;
77040;SDS011;65974;42.664;23.264;2023-02-11T09:40:03;26.90;;;10.70;;
77040;SDS011;65974;42.664;23.264;2023-02-11T09:45:26;25.05;;;11.20;;
77040;SDS011;65974;42.664;23.264;2023-02-11T09:50:40;26.38;;;12.93;;
77040;SDS011;65974;42.664;23.264;2023-02-11T09:53:10;20.00;;;11.13;;
77040;SDS011;65974;42.664;23.264;2023-02-11T09:55:59;21.23;;;10.23;;
77040;SDS011;65974;42.664;23.264;2023-02-11T10:22:30;17.80;;;7.65;;
77040;SDS011;65974;42.664;23.264;2023-02-11T10:25:00;17.55;;;9.07;;
77040;SDS011;65974;42.664;23.264;2023-02-11T10:27:41;21.63;;;9.35;;
77040;SDS011;65974;42.664;23.264;2023-02-11T10:35:48;19.35;;;9.25;;
77040;SDS011;65974;42.664;23.264;2023-02-11T10:38:14;19.80;;;7.93;;
77040;SDS011;65974;42.664;23.264;2023-02-11T10:40:39;19.85;;;8.63;;
77040;SDS011;65974;42.664;23.264;2023-02-11T10:43:06;18.05;;;7.53;;
77040;SDS011;65974;42.664;23.264;2023-02-11T10:45:37;16.77;;;7.03;;
77040;SDS011;65974;42.664;23.264;2023-02-11T10:48:34;16.15;;;7.93;;
77040;SDS011;65974;42.664;23.264;2023-02-11T10:51:07;16.48;;;7.95;;
77040;SDS011;65974;42.664;23.264;2023-02-11T10:53:39;20.90;;;9.63;;
77040;SDS011;65974;42.664;23.264;2023-02-11T10:56:05;17.40;;;8.88;;
77040;SDS011;65974;42.664;23.264;2023-02-11T11:01:22;21.75;;;9.98;;
77040;SDS011;65974;42.664;23.264;2023-02-11T11:03:49;19.98;;;9.43;;
77040;SDS011;65974;42.664;23.264;2023-02-11T11:06:16;15.75;;;8.98;;
77040;SDS011;65974;42.664;23.264;2023-02-11T11:08:54;19.95;;;8.52;;
77040;SDS011;65974;42.664;23.264;2023-02-11T11:11:21;17.30;;;8.48;;
77040;SDS011;65974;42.664;23.264;2023-02-11T11:19:32;19.30;;;10.07;;
77040;SDS011;65974;42.664;23.264;2023-02-11T11:21:52;32.80;;;12.63;;
77040;SDS011;65974;42.664;23.264;2023-02-11T11:26:54;18.33;;;8.30;;
77040;SDS011;65974;42.664;23.264;2023-02-11T11:32:04;16.67;;;8.35;;
77040;SDS011;65974;42.664;23.264;2023-02-11T11:34:41;21.60;;;9.57;;
77040;SDS011;65974;42.664;23.264;2023-02-11T11:37:17;26.25;;;9.63;;
77040;SDS011;65974;42.664;23.264;2023-02-11T11:42:40;19.30;;;9.13;;
77040;SDS011;65974;42.664;23.264;2023-02-11T11:50:36;17.92;;;9.02;;
77040;SDS011;65974;42.664;23.264;2023-02-11T11:55:59;20.17;;;9.05;;
77040;SDS011;65974;42.664;23.264;2023-02-11T11:58:33;18.75;;;8.15;;
77040;SDS011;65974;42.664;23.264;2023-02-11T12:09:03;15.05;;;7.30;;
77040;SDS011;65974;42.664;23.264;2023-02-11T12:11:38;16.27;;;8.65;;
77040;SDS011;65974;42.664;23.264;2023-02-11T12:17:05;14.00;;;7.20;;
77040;SDS011;65974;42.664;23.264;2023-02-11T12:22:48;16.20;;;7.68;;
77040;SDS011;65974;42.664;23.264;2023-02-11T12:25:26;16.98;;;7.18;;
77040;SDS011;65974;42.664;23.264;2023-02-11T12:50:42;14.38;;;7.93;;
77040;SDS011;65974;42.664;23.264;2023-02-11T12:56:22;16.17;;;7.25;;
77040;SDS011;65974;42.664;23.264;2023-02-11T12:59:01;15.32;;;8.40;;
77040;SDS011;65974;42.664;23.264;2023-02-11T13:01:33;15.48;;;8.55;;
77040;SDS011;65974;42.664;23.264;2023-02-11T13:04:15;19.98;;;9.80;;
77040;SDS011;65974;42.664;23.264;2023-02-11T13:06:48;14.75;;;7.40;;
77040;SDS011;65974;42.664;23.264;2023-02-11T13:09:19;17.35;;;6.97;;
77040;SDS011;65974;42.664;23.264;2023-02-11T13:11:50;17.27;;;8.55;;
77040;SDS011;65974;42.664;23.264;2023-02-11T13:14:29;20.63;;;7.65;;
77040;SDS011;65974;42.664;23.264;2023-02-11T13:16:59;17.80;;;7.60;;
77040;SDS011;65974;42.664;23.264;2023-02-11T13:22:12;20.35;;;7.95;;
77040;SDS011;65974;42.664;23.264;2023-02-11T13:24:49;18.30;;;8.45;;
77040;SDS011;65974;42.664;23.264;2023-02-11T13:27:37;17.33;;;8.63;;
77040;SDS011;65974;42.664;23.264;2023-02-11T13:30:27;17.05;;;7.63;;
77040;SDS011;65974;42.664;23.264;2023-02-11T13:37:53;13.77;;;8.18;;
77040;SDS011;65974;42.664;23.264;2023-02-11T13:40:21;18.08;;;8.80;;
77040;SDS011;65974;42.664;23.264;2023-02-11T13:42:51;16.23;;;8.85;;
77040;SDS011;65974;42.664;23.264;2023-02-11T13:48:20;15.00;;;7.97;;
77040;SDS011;65974;42.664;23.264;2023-02-11T13:50:52;19.55;;;8.50;;
77040;SDS011;65974;42.664;23.264;2023-02-11T13:53:20;14.77;;;8.05;;
77040;SDS011;65974;42.664;23.264;2023-02-11T13:55:48;21.15;;;8.57;;
77040;SDS011;65974;42.664;23.264;2023-02-11T14:00:57;19.90;;;9.27;;
77040;SDS011;65974;42.664;23.264;2023-02-11T14:03:24;20.58;;;10.07;;
77040;SDS011;65974;42.664;23.264;2023-02-11T14:06:18;18.98;;;8.90;;
77040;SDS011;65974;42.664;23.264;2023-02-11T14:19:30;14.85;;;7.22;;
77040;SDS011;65974;42.664;23.264;2023-02-11T14:29:57;21.85;;;9.13;;
77040;SDS011;65974;42.664;23.264;2023-02-11T14:35:29;19.70;;;10.25;;
77040;SDS011;65974;42.664;23.264;2023-02-11T14:43:47;24.13;;;9.88;;
77040;SDS011;65974;42.664;23.264;2023-02-11T14:46:16;22.52;;;10.48;;
77040;SDS011;65974;42.664;23.264;2023-02-11T14:48:44;20.27;;;9.65;;
77040;SDS011;65974;42.664;23.264;2023-02-11T14:53:42;20.38;;;10.23;;
77040;SDS011;65974;42.664;23.264;2023-02-11T14:56:17;23.08;;;12.32;;
77040;SDS011;65974;42.664;23.264;2023-02-11T14:58:51;22.17;;;11.50;;
77040;SDS011;65974;42.664;23.264;2023-02-11T15:01:21;24.38;;;10.13;;
77040;SDS011;65974;42.664;23.264;2023-02-11T15:04:26;22.38;;;12.15;;
77040;SDS011;65974;42.664;23.264;2023-02-11T15:06:54;26.80;;;10.85;;
77040;SDS011;65974;42.664;23.264;2023-02-11T15:09:43;23.88;;;10.50;;
77040;SDS011;65974;42.664;23.264;2023-02-11T15:12:24;20.02;;;10.70;;
77040;SDS011;65974;42.664;23.264;2023-02-11T15:14:55;18.88;;;10.27;;
77040;SDS011;65974;42.664;23.264;2023-02-11T15:17:25;24.20;;;10.75;;
77040;SDS011;65974;42.664;23.264;2023-02-11T15:19:54;20.48;;;10.80;;
77040;SDS011;65974;42.664;23.264;2023-02-11T15:22:26;22.45;;;11.95;;
77040;SDS011;65974;42.664;23.264;2023-02-11T15:27:44;28.42;;;12.45;;
77040;SDS011;65974;42.664;23.264;2023-02-11T15:30:22;29.88;;;15.45;;
77040;SDS011;65974;42.664;23.264;2023-02-11T15:32:49;29.80;;;14.13;;
77040;SDS011;65974;42.664;23.264;2023-02-11T15:35:22;30.05;;;15.60;;
77040;SDS011;65974;42.664;23.264;2023-02-11T15:37:48;29.10;;;16.55;;
77040;SDS011;65974;42.664;23.264;2023-02-11T15:40:14;29.88;;;14.85;;
77040;SDS011;65974;42.664;23.264;2023-02-11T15:42:52;26.73;;;13.88;;
77040;SDS011;65974;42.664;23.264;2023-02-11T15:45:23;35.45;;;17.05;;
77040;SDS011;65974;42.664;23.264;2023-02-11T15:50:41;37.45;;;17.85;;
77040;SDS011;65974;42.664;23.264;2023-02-11T15:56:10;21.73;;;11.90;;
77040;SDS011;65974;42.664;23.264;2023-02-11T15:58:49;25.23;;;12.30;;
77040;SDS011;65974;42.664;23.264;2023-02-11T16:01:17;25.05;;;12.48;;
77040;SDS011;65974;42.664;23.264;2023-02-11T16:03:42;24.23;;;11.57;;
77040;SDS011;65974;42.664;23.264;2023-02-11T16:12:05;38.03;;;20.67;;
77040;SDS011;65974;42.664;23.264;2023-02-11T16:17:01;37.85;;;18.30;;
77040;SDS011;65974;42.664;23.264;2023-02-11T16:19:33;40.63;;;21.15;;
77040;SDS011;65974;42.664;23.264;2023-02-11T16:22:04;50.85;;;23.88;;
77040;SDS011;65974;42.664;23.264;2023-02-11T16:24:33;40.15;;;21.80;;
77040;SDS011;65974;42.664;23.264;2023-02-11T16:27:23;38.10;;;20.77;;
77040;SDS011;65974;42.664;23.264;2023-02-11T16:29:54;47.05;;;22.60;;
77040;SDS011;65974;42.664;23.264;2023-02-11T16:32:22;38.72;;;21.15;;
77040;SDS011;65974;42.664;23.264;2023-02-11T16:34:51;63.05;;;29.23;;
77040;SDS011;65974;42.664;23.264;2023-02-11T16:37:24;47.47;;;24.17;;
77040;SDS011;65974;42.664;23.264;2023-02-11T16:39:53;52.58;;;25.45;;
77040;SDS011;65974;42.664;23.264;2023-02-11T16:42:19;54.35;;;22.33;;
77040;SDS011;65974;42.664;23.264;2023-02-11T16:44:45;41.05;;;20.25;;
77040;SDS011;65974;42.664;23.264;2023-02-11T16:47:18;44.38;;;21.63;;
77040;SDS011;65974;42.664;23.264;2023-02-11T16:49:47;61.38;;;24.35;;
77040;SDS011;65974;42.664;23.264;2023-02-11T16:52:13;71.07;;;30.27;;
77040;SDS011;65974;42.664;23.264;2023-02-11T16:54:40;59.42;;;28.13;;
77040;SDS011;65974;42.664;23.264;2023-02-11T16:57:13;52.67;;;30.75;;
77040;SDS011;65974;42.664;23.264;2023-02-11T16:59:40;59.75;;;27.80;;
77040;SDS011;65974;42.664;23.264;2023-02-11T17:02:11;58.70;;;29.48;;
77040;SDS011;65974;42.664;23.264;2023-02-11T17:04:42;66.18;;;31.92;;
77040;SDS011;65974;42.664;23.264;2023-02-11T17:07:08;49.53;;;24.45;;
77040;SDS011;65974;42.664;23.264;2023-02-11T17:09:33;42.95;;;19.38;;
77040;SDS011;65974;42.664;23.264;2023-02-11T17:11:59;54.67;;;24.80;;
77040;SDS011;65974;42.664;23.264;2023-02-11T17:14:24;40.65;;;18.00;;
77040;SDS011;65974;42.664;23.264;2023-02-11T17:16:50;30.55;;;14.00;;
77040;SDS011;65974;42.664;23.264;2023-02-11T17:19:16;33.75;;;16.23;;
77040;SDS011;65974;42.664;23.264;2023-02-11T17:21:43;33.13;;;16.90;;
77040;SDS011;65974;42.664;23.264;2023-02-11T17:24:09;32.88;;;14.23;;
77040;SDS011;65974;42.664;23.264;2023-02-11T17:26:36;29.05;;;14.02;;
77040;SDS011;65974;42.664;23.264;2023-02-11T17:29:05;32.88;;;15.02;;
77040;SDS011;65974;42.664;23.264;2023-02-11T17:31:34;32.15;;;13.70;;
77040;SDS011;65974;42.664;23.264;2023-02-11T17:34:00;30.98;;;13.20;;
77040;SDS011;65974;42.664;23.264;2023-02-11T17:36:26;29.15;;;13.50;;
77040;SDS011;65974;42.664;23.264;2023-02-11T17:38:53;26.95;;;10.90;;
77040;SDS011;65974;42.664;23.264;2023-02-11T17:41:18;35.72;;;16.23;;
77040;SDS011;65974;42.664;23.264;2023-02-11T17:43:44;23.13;;;8.52;;
77040;SDS011;65974;42.664;23.264;2023-02-11T17:46:09;21.38;;;10.50;;
77040;SDS011;65974;42.664;23.264;2023-02-11T17:48:38;27.42;;;12.90;;
77040;SDS011;65974;42.664;23.264;2023-02-11T17:51:04;24.98;;;10.43;;
77040;SDS011;65974;42.664;23.264;2023-02-11T17:53:32;18.92;;;10.65;;